• Join FlightAware (Why Join?)
  • Login
  • US Flag 
04:03PM EST


 

Airport Tracker/Info


-or-


 

Live Flight TrackerFlight Track Log ✈ AWI3778 ✈ 08-May-2013 ✈ KBTV - KPHL

Flight Track Log - Related Links

Times and Time Zones

All times are in EDT time to prevent confusion due to time zone crossing. See the AWI3778 flight status page for this flight to view local times or setup timezone preferences in your user account.

Time Position Orientation Groundspeed Altitude Reporting Facility
EDT Latitude Longitude Course Direction KTS MPH feet Rate Location/Type
02:04PM 44.1733 -73.2574 196° South  Level FlightAware Approximate
02:05PM 44.0758 -73.2964 196° South  Level FlightAware Approximate
02:05PM 44.2464 -73.1964 197° South 298 343 9,300  Level Boston Center
02:06PM 43.9783 -73.3354 196° South  Level FlightAware Approximate
02:06PM 44.1522 -73.2358 197° South 293 337 11,400  Level Boston Center
02:07PM 43.8807 -73.3738 195° South  Level FlightAware Approximate
02:07PM 44.0625 -73.2722 196° South 314 361 13,700  Level Boston Center
02:08PM 43.7827 -73.4100 195° South  Level FlightAware Approximate
02:08PM 43.9831 -73.3144 201° Southwest 335 386 15,400  Level Boston Center
02:09PM 43.6846 -73.4462 195° South  Level FlightAware Approximate
02:09PM 43.9011 -73.3881 213° Southwest 349 402 17,300  Level Boston Center
02:10PM 43.8169 -73.4672 214° Southwest 366 421 18,600 1,380 Climbing Boston Center
02:11PM 43.7308 -73.5492 215° Southwest 379 436 20,100 1,560 Climbing Boston Center
02:12PM 43.6361 -73.6364 214° Southwest 384 442 21,800 1,620 Climbing Boston Center
02:13PM 43.5500 -73.7178 214° Southwest 384 442 23,400 1,680 Climbing Boston Center
02:14PM 43.4636 -73.7961 213° Southwest 378 435 25,200 1,260 Climbing Boston Center
02:15PM 43.3919 -73.8658 215° Southwest 371 427 26,000 360 Climbing Boston Center
02:16PM 43.3075 -73.9381 212° Southwest 371 427 26,000  Level Boston Center
02:17PM 43.2231 -74.0186 215° Southwest 371 427 26,000  Level Boston Center
02:18PM 43.1408 -74.0933 214° Southwest 371 427 26,000  Level Boston Center
02:19PM 43.0564 -74.1706 214° Southwest 371 427 26,000  Level Boston Center
02:20PM 42.9717 -74.2478 214° Southwest 371 427 26,000  Level Boston Center
02:21PM 42.8828 -74.3300 214° Southwest 378 435 26,000  Level Boston Center
02:22PM 42.7875 -74.4147 213° Southwest 399 459 26,000  Level Boston Center
02:23PM 42.6922 -74.4994 213° Southwest 407 468 26,000  Level Boston Center
02:24PM 42.6011 -74.5839 214° Southwest 407 468 26,000  Level Boston Center
02:25PM 42.5100 -74.6653 213° Southwest 402 463 26,000 -360 Level Boston Center
02:26PM 42.4144 -74.7489 213° Southwest 407 468 25,300 -900 Descending Boston Center
02:27PM 42.3231 -74.8297 213° Southwest 407 468 24,300 -1,020 Descending Boston Center
02:28PM 42.2361 -74.9078 214° Southwest 396 456 23,300 -1,080 Descending Boston Center
02:29PM 42.1489 -74.9856 213° Southwest 386 444 22,200 -1,380 Descending Boston Center
02:31PM 41.9381 -75.1567 211° Southwest 385 443 19,000 -1,020 Descending New York Center
02:32PM 41.8544 -75.2264 212° Southwest 378 435 19,000 -60 Level New York Center
02:33PM 41.7750 -75.2878 210° Southwest 373 429 18,900 -1,200 Descending New York Center
02:34PM 41.6889 -75.3597 212° Southwest 378 435 16,700 -2,700 Descending New York Center
02:35PM 41.5964 -75.4339 211° Southwest 368 423 13,500 -2,340 Descending New York Center
02:36PM 41.5169 -75.4975 211° Southwest 353 406 12,000 -780 Descending New York Center
02:37PM 41.4394 -75.5583 210° Southwest 330 380 12,000  Level New York Center
02:38PM 41.3686 -75.6142 211° Southwest 330 380 12,000  Level New York Center
02:39PM 41.2953 -75.6697 210° Southwest 322 371 12,000  Level New York Center
02:40PM 41.2178 -75.6861 189° South 267 307 12,000  Level New York Center
02:41PM 41.1447 -75.6892 182° South 262 302 12,000  Level New York Center
02:42PM 41.0697 -75.6892 180° South 262 302 12,100  Climbing New York Center
02:43PM 41.0050 -75.6872 179° South 262 302 12,000 -60 Descending New York Center
02:44PM 40.9281 -75.6872 180° South 273 314 12,000  Level New York Center
02:45PM 40.8469 -75.6867 180° South 273 314 12,000  Level New York Center
02:46PM 40.7717 -75.6869 180° South 273 314 12,000  Level New York Center
02:47PM 40.7031 -75.6875 180° South 273 314 12,000  Level New York Center
02:48PM 40.6281 -75.6875 180° South 273 314 12,000 -300 Level New York Center
02:49PM 40.5569 -75.6442 155° Southeast 273 314 11,500 -780 Descending New York Center
02:50PM 40.5164 -75.5647 124° Southeast 256 295 10,500 -780 Descending New York Center
02:51PM 40.4781 -75.4831 122° Southeast 263 303 10,000 -300 Descending New York Center
02:52PM 40.4303 -75.4253 137° Southeast 258 297 10,000  Level New York Center
02:53PM 40.3589 -75.3822 155° Southeast 258 297 10,000  Level New York Center
02:54PM 40.2958 -75.3428 154° Southeast 264 304 10,000  Level New York Center
02:55PM 40.2286 -75.3056 157° South 259 298 10,000  Level New York Center
02:56PM 40.1714 -75.2747 158° South 272 313 10,000  Level New York Center
02:57PM 40.1222 -75.1956 129° Southeast 238 274 10,000 -60 Level New York Center
02:58PM 40.1683 -75.1358 45° Northeast 203 234 9,900  Descending New York Center
02:59PM 40.2456 -75.1897 332° Northwest 227 261 10,000  Climbing New York Center
03:00PM 40.2994 -75.2531 318° Northwest 273 314 9,900 -60 Descending New York Center
03:01PM 40.3058 -75.3514 275° West 274 315 9,900  Level New York Center
03:02PM 40.2853 -75.4536 255° West 274 315 10,000 -60 Climbing New York Center
03:03PM 40.2233 -75.4386 170° South 202 232 9,800 -960 Descending New York Center
03:04PM 40.1556 -75.4150 165° South 233 268 8,100 -1,500 Descending New York Center
03:05PM 40.1097 -75.3603 138° Southeast 243 280 6,800 -1,080 Descending New York Center
03:06PM 40.0919 -75.2831 107° East 232 267 6,000 -420 Descending New York Center
03:07PM 40.0833 -75.1833 96° East 200 230 6,000  Level Philadelphia TRACON
03:08PM 40.0667 -75.1167 108° East 198 228 6,000  Level Philadelphia TRACON
03:09PM 40.0500 -75.0500 108° East 212 244 6,000  Level Philadelphia TRACON
03:10PM 40.0333 -74.9667 105° East 209 241 6,000  Level Philadelphia TRACON
03:11PM 40.0333 -74.8833 90° East 202 232 6,000 -540 Level Philadelphia TRACON
03:12PM 39.9833 -74.8500 153° Southeast 206 237 5,000 -1,080 Descending Philadelphia TRACON
03:13PM 39.9500 -74.9000 229° Southwest 209 241 4,000 -960 Descending Philadelphia TRACON
03:14PM 39.9333 -74.9833 255° West 188 216 3,100 -840 Descending Philadelphia TRACON